Time,TemperatureF,DewpointF,PressureIn,WindDirection,WindDirectionDegrees,WindSpeedMPH,WindSpeedGustMPH,Humidity,HourlyPrecipIn,Conditions,Clouds,dailyrainin,SoftwareType,DateUTC
2013-04-04 00:01:00,39.8,31.5,30.20,ENE,59,0.0,0.0,72,0.00,,,0.01,Wunderground v.1.15,2013-04-04 05:01:00,
2013-04-04 00:10:00,40.1,30.7,30.20,ENE,59,0.0,0.0,69,0.00,,,0.01,Wunderground v.1.15,2013-04-04 05:10:00,
2013-04-04 00:15:00,40.3,31.3,30.19,ENE,59,0.0,1.0,70,0.00,,,0.01,Wunderground v.1.15,2013-04-04 05:15:00,
2013-04-04 00:20:00,40.5,28.9,30.19,ENE,59,0.0,1.0,63,0.00,,,0.01,Wunderground v.1.15,2013-04-04 05:20:00,
2013-04-04 00:26:00,41.3,27.6,30.19,ENE,59,0.0,2.0,58,0.00,,,0.01,Wunderground v.1.15,2013-04-04 05:26:00,
2013-04-04 00:35:00,42.6,27.1,30.17,East,80,1.0,4.0,54,0.00,,,0.01,Wunderground v.1.15,2013-04-04 05:35:00,
2013-04-04 00:40:00,43.1,27.1,30.17,ESE,114,1.0,1.0,53,0.00,,,0.01,Wunderground v.1.15,2013-04-04 05:40:00,
2013-04-04 00:45:00,43.6,25.7,30.17,SSE,156,1.0,7.0,49,0.00,,,0.01,Wunderground v.1.15,2013-04-04 05:45:00,
2013-04-04 00:51:00,44.3,25.8,30.17,SSE,148,2.0,5.0,48,0.00,,,0.01,Wunderground v.1.15,2013-04-04 05:51:00,
2013-04-04 01:00:00,44.6,25.1,30.17,East,96,2.0,2.0,46,0.00,,,0.01,Wunderground v.1.15,2013-04-04 06:00:00,
2013-04-04 01:05:00,44.5,25.0,30.17,SE,143,1.0,2.0,46,0.00,,,0.00,Wunderground v.1.15,2013-04-04 06:05:00,
2013-04-04 01:10:00,44.5,25.0,30.17,SE,138,1.0,5.0,46,0.00,,,0.00,Wunderground v.1.15,2013-04-04 06:10:00,
2013-04-04 01:16:00,44.5,25.5,30.16,SSE,148,2.0,5.0,47,0.00,,,0.00,Wunderground v.1.15,2013-04-04 06:16:00,
2013-04-04 01:21:00,44.3,26.8,30.16,SSE,150,2.0,2.0,50,0.00,,,0.00,Wunderground v.1.15,2013-04-04 06:21:00,
2013-04-04 01:30:00,44.1,25.6,30.16,ESE,115,2.0,3.0,48,0.00,,,0.00,Wunderground v.1.15,2013-04-04 06:30:00,
2013-04-04 01:35:00,43.9,26.0,30.16,East,94,2.0,2.0,49,0.00,,,0.00,Wunderground v.1.15,2013-04-04 06:35:00,
2013-04-04 01:40:00,43.8,26.8,30.16,ESE,117,2.0,3.0,51,0.00,,,0.00,Wunderground v.1.15,2013-04-04 06:40:00,
2013-04-04 01:46:00,43.5,27.0,30.16,ESE,117,1.0,4.0,52,0.00,,,0.00,Wunderground v.1.15,2013-04-04 06:46:00,
2013-04-04 01:51:00,43.3,27.3,30.16,ESE,117,1.0,4.0,53,0.00,,,0.00,Wunderground v.1.15,2013-04-04 06:51:00,
2013-04-04 02:00:00,43.1,28.0,30.16,ESE,117,0.0,0.0,55,0.00,,,0.00,Wunderground v.1.15,2013-04-04 07:00:00,
2013-04-04 02:05:00,43.1,28.5,30.16,ESE,117,0.0,0.0,56,0.00,,,0.00,Wunderground v.1.15,2013-04-04 07:05:00,
2013-04-04 02:10:00,42.9,28.3,30.16,ESE,117,0.0,0.0,56,0.00,,,0.00,Wunderground v.1.15,2013-04-04 07:10:00,
2013-04-04 02:15:00,42.9,30.0,30.16,ESE,117,0.0,0.0,60,0.00,,,0.00,Wunderground v.1.15,2013-04-04 07:15:00,
2013-04-04 02:21:00,42.8,30.3,30.16,ESE,117,0.0,0.0,61,0.00,,,0.00,Wunderground v.1.15,2013-04-04 07:21:00,
2013-04-04 02:26:00,42.5,30.0,30.16,ESE,117,0.0,0.0,61,0.00,,,0.00,Wunderground v.1.15,2013-04-04 07:26:00,
2013-04-04 02:35:00,42.2,30.9,30.16,ESE,117,0.0,0.0,64,0.00,,,0.00,Wunderground v.1.15,2013-04-04 07:35:00,
2013-04-04 02:40:00,41.9,30.2,30.16,ESE,117,0.0,0.0,63,0.00,,,0.00,Wunderground v.1.15,2013-04-04 07:40:00,
2013-04-04 02:45:00,41.8,30.9,30.16,ESE,117,0.0,0.0,65,0.00,,,0.00,Wunderground v.1.15,2013-04-04 07:45:00,
2013-04-04 02:51:00,41.6,30.7,30.16,ESE,117,0.0,0.0,65,0.00,,,0.00,Wunderground v.1.15,2013-04-04 07:51:00,
2013-04-04 03:00:00,41.3,30.4,30.16,ESE,117,0.0,0.0,65,0.00,,,0.00,Wunderground v.1.15,2013-04-04 08:00:00,
2013-04-04 03:05:00,41.2,31.1,30.16,ESE,117,0.0,0.0,67,0.00,,,0.00,Wunderground v.1.15,2013-04-04 08:05:00,
2013-04-04 03:11:00,41.2,31.8,30.16,ESE,117,0.0,0.0,69,0.00,,,0.00,Wunderground v.1.15,2013-04-04 08:11:00,
2013-04-04 03:20:00,41.1,30.6,30.15,ESE,117,0.0,0.0,66,0.00,,,0.00,Wunderground v.1.15,2013-04-04 08:20:00,
2013-04-04 03:25:00,41.1,31.7,30.15,ESE,117,0.0,0.0,69,0.00,,,0.00,Wunderground v.1.15,2013-04-04 08:25:00,
2013-04-04 03:30:00,41.1,31.7,30.15,ESE,117,0.0,0.0,69,0.00,,,0.00,Wunderground v.1.15,2013-04-04 08:30:00,
2013-04-04 03:35:00,41.1,31.7,30.15,ESE,117,0.0,0.0,69,0.00,,,0.00,Wunderground v.1.15,2013-04-04 08:35:00,
2013-04-04 03:41:00,41.1,31.3,30.15,ESE,117,0.0,0.0,68,0.00,,,0.00,Wunderground v.1.15,2013-04-04 08:41:00,
2013-04-04 03:50:00,41.1,31.7,30.15,ESE,117,0.0,0.0,69,0.00,,,0.00,Wunderground v.1.15,2013-04-04 08:50:00,
2013-04-04 03:55:00,41.2,32.9,30.15,ESE,117,0.0,0.0,72,0.00,,,0.00,Wunderground v.1.15,2013-04-04 08:55:00,
2013-04-04 04:00:00,41.2,32.9,30.15,ESE,117,0.0,0.0,72,0.00,,,0.00,Wunderground v.1.15,2013-04-04 09:00:00,
2013-04-04 04:05:00,41.2,32.9,30.15,ESE,117,0.0,0.0,72,0.00,,,0.00,Wunderground v.1.15,2013-04-04 09:05:00,
2013-04-04 04:10:00,41.2,32.9,30.15,ESE,117,0.0,0.0,72,0.00,,,0.00,Wunderground v.1.15,2013-04-04 09:10:00,
2013-04-04 04:16:00,41.2,32.5,30.15,ESE,117,0.0,0.0,71,0.00,,,0.00,Wunderground v.1.15,2013-04-04 09:16:00,
2013-04-04 04:25:00,41.2,32.9,30.15,ESE,117,0.0,0.0,72,0.00,,,0.00,Wunderground v.1.15,2013-04-04 09:25:00,
2013-04-04 04:30:00,41.2,33.2,30.15,ESE,117,0.0,0.0,73,0.00,,,0.00,Wunderground v.1.15,2013-04-04 09:30:00,
2013-04-04 04:35:00,41.2,32.9,30.15,ESE,117,0.0,0.0,72,0.00,,,0.00,Wunderground v.1.15,2013-04-04 09:35:00,
2013-04-04 04:41:00,41.2,32.9,30.15,ESE,117,0.0,0.0,72,0.00,,,0.00,Wunderground v.1.15,2013-04-04 09:41:00,
2013-04-04 04:50:00,41.2,32.9,30.15,ESE,117,0.0,0.0,72,0.00,,,0.00,Wunderground v.1.15,2013-04-04 09:50:00,
2013-04-04 04:55:00,41.2,31.8,30.15,ESE,117,0.0,0.0,69,0.00,,,0.00,Wunderground v.1.15,2013-04-04 09:55:00,
2013-04-04 05:00:00,41.3,33.6,30.14,ESE,117,0.0,0.0,74,0.00,,,0.00,Wunderground v.1.15,2013-04-04 10:00:00,
2013-04-04 05:06:00,41.2,33.5,30.14,ESE,117,0.0,0.0,74,0.00,,,0.00,Wunderground v.1.15,2013-04-04 10:06:00,
2013-04-04 05:11:00,41.1,33.8,30.14,ESE,117,0.0,0.0,75,0.00,,,0.00,Wunderground v.1.15,2013-04-04 10:11:00,
2013-04-04 05:20:00,40.8,33.5,30.14,ESE,117,0.0,0.0,75,0.00,,,0.00,Wunderground v.1.15,2013-04-04 10:20:00,
2013-04-04 05:25:00,40.8,34.5,30.14,ESE,117,0.0,0.0,78,0.00,,,0.00,Wunderground v.1.15,2013-04-04 10:25:00,
2013-04-04 05:31:00,40.6,34.6,30.14,ESE,117,0.0,0.0,79,0.00,,,0.01,Wunderground v.1.15,2013-04-04 10:31:00,
2013-04-04 05:40:00,40.5,34.8,30.14,ESE,117,0.0,0.0,80,0.06,,,0.02,Wunderground v.1.15,2013-04-04 10:40:00,
2013-04-04 05:45:00,40.3,34.9,30.15,ESE,117,0.0,0.0,81,0.06,,,0.02,Wunderground v.1.15,2013-04-04 10:45:00,
2013-04-04 05:51:00,40.3,35.2,30.15,ESE,117,0.0,0.0,82,0.05,,,0.02,Wunderground v.1.15,2013-04-04 10:51:00,
2013-04-04 06:00:00,40.1,35.4,30.15,ESE,117,0.0,0.0,83,0.00,,,0.02,Wunderground v.1.15,2013-04-04 11:00:00,
2013-04-04 06:05:00,39.9,34.9,30.15,ESE,117,0.0,0.0,82,0.00,,,0.02,Wunderground v.1.15,2013-04-04 11:05:00,
2013-04-04 06:10:00,39.8,35.1,30.15,ESE,117,0.0,0.0,83,0.00,,,0.02,Wunderground v.1.15,2013-04-04 11:10:00,
2013-04-04 06:15:00,39.8,35.4,30.15,ESE,117,0.0,0.0,84,0.00,,,0.02,Wunderground v.1.15,2013-04-04 11:15:00,
2013-04-04 06:21:00,39.8,35.4,30.15,ESE,117,0.0,0.0,84,0.00,,,0.02,Wunderground v.1.15,2013-04-04 11:21:00,
2013-04-04 06:26:00,39.8,35.7,30.15,ESE,117,0.0,0.0,85,0.00,,,0.02,Wunderground v.1.15,2013-04-04 11:26:00,
2013-04-04 06:35:00,39.8,36.0,30.15,ESE,117,0.0,0.0,86,0.00,,,0.02,Wunderground v.1.15,2013-04-04 11:35:00,
2013-04-04 06:40:00,39.8,36.0,30.15,ESE,117,0.0,0.0,86,0.00,,,0.02,Wunderground v.1.15,2013-04-04 11:40:00,
2013-04-04 06:45:00,39.8,36.0,30.15,ESE,117,0.0,0.0,86,0.00,,,0.02,Wunderground v.1.15,2013-04-04 11:45:00,
2013-04-04 06:50:00,39.6,35.8,30.15,ESE,117,0.0,0.0,86,0.00,,,0.02,Wunderground v.1.15,2013-04-04 11:50:00,
2013-04-04 06:55:00,39.6,36.0,30.15,ESE,117,0.0,0.0,87,0.00,,,0.02,Wunderground v.1.15,2013-04-04 11:55:00,
2013-04-04 07:01:00,39.6,36.0,30.16,ESE,117,0.0,0.0,87,0.00,,,0.02,Wunderground v.1.15,2013-04-04 12:01:00,
2013-04-04 07:10:00,39.6,36.0,30.16,ESE,117,0.0,0.0,87,0.00,,,0.02,Wunderground v.1.15,2013-04-04 12:10:00,
2013-04-04 07:15:00,39.5,36.0,30.17,ESE,117,0.0,0.0,87,0.00,,,0.02,Wunderground v.1.15,2013-04-04 12:15:00,
2013-04-04 07:21:00,39.6,36.3,30.17,ESE,117,0.0,0.0,88,0.00,,,0.02,Wunderground v.1.15,2013-04-04 12:21:00,
2013-04-04 07:26:00,39.6,36.3,30.17,ESE,117,0.0,0.0,88,0.00,,,0.02,Wunderground v.1.15,2013-04-04 12:26:00,
2013-04-04 07:31:00,39.6,36.3,30.17,ESE,117,0.0,0.0,88,0.00,,,0.02,Wunderground v.1.15,2013-04-04 12:31:00,
2013-04-04 07:40:00,39.6,36.3,30.17,ESE,117,0.0,0.0,88,0.00,,,0.02,Wunderground v.1.15,2013-04-04 12:40:00,
2013-04-04 07:45:00,39.5,36.2,30.17,ESE,117,0.0,0.0,88,0.00,,,0.02,Wunderground v.1.15,2013-04-04 12:45:00,
2013-04-04 07:50:00,39.8,36.8,30.17,ESE,117,0.0,0.0,89,0.00,,,0.02,Wunderground v.1.15,2013-04-04 12:50:00,
2013-04-04 07:55:00,39.9,36.9,30.17,ESE,117,0.0,0.0,89,0.00,,,0.02,Wunderground v.1.15,2013-04-04 12:55:00,
2013-04-04 08:00:00,39.9,36.9,30.17,ESE,117,0.0,0.0,89,0.00,,,0.02,Wunderground v.1.15,2013-04-04 13:00:00,
2013-04-04 08:05:00,40.1,37.1,30.17,ESE,117,0.0,0.0,89,0.00,,,0.02,Wunderground v.1.15,2013-04-04 13:05:00,
2013-04-04 08:10:00,40.1,36.8,30.17,ESE,117,0.0,0.0,88,0.00,,,0.02,Wunderground v.1.15,2013-04-04 13:10:00,
2013-04-04 08:16:00,40.1,36.8,30.17,ESE,117,0.0,0.0,88,0.00,,,0.02,Wunderground v.1.15,2013-04-04 13:16:00,
2013-04-04 08:26:00,40.2,36.1,30.17,ESE,117,0.0,1.0,85,0.00,,,0.02,Wunderground v.1.15,2013-04-04 13:26:00,
2013-04-04 08:36:00,40.5,33.9,30.17,NE,43,0.0,1.0,77,0.00,,,0.02,Wunderground v.1.15,2013-04-04 13:36:00,
2013-04-04 08:41:00,40.6,32.6,30.17,NE,43,0.0,1.0,73,0.00,,,0.02,Wunderground v.1.15,2013-04-04 13:41:00,
2013-04-04 08:50:00,41.2,31.8,30.17,North,355,1.0,4.0,69,0.00,,,0.02,Wunderground v.1.15,2013-04-04 13:50:00,
2013-04-04 08:55:00,41.3,30.4,30.17,North,355,1.0,4.0,65,0.00,,,0.02,Wunderground v.1.15,2013-04-04 13:55:00,
2013-04-04 09:00:00,41.6,31.4,30.16,North,355,1.0,1.0,67,0.00,,,0.02,Wunderground v.1.15,2013-04-04 14:00:00,
2013-04-04 09:05:00,41.8,31.6,30.16,North,355,1.0,2.0,67,0.00,,,0.02,Wunderground v.1.15,2013-04-04 14:05:00,
2013-04-04 09:20:00,42.3,31.7,30.16,North,355,0.0,2.0,66,0.00,,,0.02,Wunderground v.1.15,2013-04-04 14:20:00,
2013-04-04 09:25:00,42.5,31.2,30.16,North,355,0.0,0.0,64,0.00,,,0.02,Wunderground v.1.15,2013-04-04 14:25:00,
2013-04-04 09:30:00,42.6,30.5,30.15,North,355,0.0,0.0,62,0.00,,,0.02,Wunderground v.1.15,2013-04-04 14:30:00,
2013-04-04 09:35:00,42.8,31.5,30.15,North,355,0.0,0.0,64,0.00,,,0.02,Wunderground v.1.15,2013-04-04 14:35:00,
2013-04-04 09:40:00,42.9,31.6,30.15,North,355,0.0,0.0,64,0.00,,,0.02,Wunderground v.1.15,2013-04-04 14:40:00,
2013-04-04 09:46:00,43.1,31.4,30.14,North,355,1.0,3.0,63,0.00,,,0.02,Wunderground v.1.15,2013-04-04 14:46:00,
2013-04-04 09:51:00,43.1,30.6,30.14,North,355,1.0,3.0,61,0.00,,,0.02,Wunderground v.1.15,2013-04-04 14:51:00,
2013-04-04 10:00:00,43.3,31.5,30.14,North,355,2.0,4.0,63,0.00,,,0.02,Wunderground v.1.15,2013-04-04 15:00:00,
2013-04-04 10:05:00,43.5,30.9,30.14,North,355,2.0,4.0,61,0.00,,,0.02,Wunderground v.1.15,2013-04-04 15:05:00,
2013-04-04 10:10:00,43.6,31.0,30.14,North,355,2.0,2.0,61,0.00,,,0.02,Wunderground v.1.15,2013-04-04 15:10:00,
2013-04-04 10:15:00,43.9,30.9,30.14,North,355,1.0,2.0,60,0.00,,,0.02,Wunderground v.1.15,2013-04-04 15:15:00,
2013-04-04 10:20:00,44.1,30.3,30.14,North,355,1.0,1.0,58,0.00,,,0.02,Wunderground v.1.15,2013-04-04 15:20:00,
2013-04-04 10:26:00,44.5,31.1,30.14,North,355,1.0,3.0,59,0.00,,,0.02,Wunderground v.1.15,2013-04-04 15:26:00,
2013-04-04 10:35:00,45.1,30.3,30.14,NNE,26,1.0,1.0,56,0.00,,,0.02,Wunderground v.1.15,2013-04-04 15:35:00,
2013-04-04 10:40:00,45.5,30.3,30.14,NNE,26,1.0,4.0,55,0.00,,,0.02,Wunderground v.1.15,2013-04-04 15:40:00,
2013-04-04 10:51:00,46.1,29.4,30.13,NE,34,2.0,4.0,52,0.00,,,0.02,Wunderground v.1.15,2013-04-04 15:51:00,
2013-04-04 10:56:00,46.2,30.0,30.13,North,355,3.0,3.0,53,0.00,,,0.02,Wunderground v.1.15,2013-04-04 15:56:00,
2013-04-04 11:05:00,46.7,29.0,30.13,NNE,26,3.0,5.0,50,0.00,,,0.02,Wunderground v.1.15,2013-04-04 16:05:00,
2013-04-04 11:10:00,47.1,29.4,30.13,NNW,337,2.0,2.0,50,0.00,,,0.02,Wunderground v.1.15,2013-04-04 16:10:00,
2013-04-04 11:15:00,47.6,29.9,30.13,North,351,3.0,5.0,50,0.00,,,0.02,Wunderground v.1.15,2013-04-04 16:15:00,
2013-04-04 11:20:00,47.9,29.1,30.13,NNE,16,4.0,7.0,48,0.00,,,0.02,Wunderground v.1.15,2013-04-04 16:20:00,
2013-04-04 11:25:00,48.0,27.6,30.13,NNE,31,4.0,8.0,45,0.00,,,0.02,Wunderground v.1.15,2013-04-04 16:25:00,
2013-04-04 11:31:00,48.5,28.1,30.13,NNE,32,3.0,7.0,45,0.00,,,0.02,Wunderground v.1.15,2013-04-04 16:31:00,
2013-04-04 11:36:00,48.8,28.9,30.13,NE,38,4.0,7.0,46,0.00,,,0.02,Wunderground v.1.15,2013-04-04 16:36:00,
2013-04-04 11:45:00,49.4,27.2,30.13,NNE,22,5.0,10.0,42,0.00,,,0.02,Wunderground v.1.15,2013-04-04 16:45:00,
2013-04-04 11:50:00,50.4,29.3,30.13,NE,46,6.0,6.0,44,0.00,,,0.02,Wunderground v.1.15,2013-04-04 16:50:00,
2013-04-04 11:56:00,51.1,28.2,30.13,NE,44,5.0,7.0,41,0.00,,,0.02,Wunderground v.1.15,2013-04-04 16:56:00,
2013-04-04 12:05:00,52.8,30.3,30.12,North,9,6.0,6.0,42,0.00,,,0.02,Wunderground v.1.15,2013-04-04 17:05:00,
2013-04-04 12:10:00,52.6,28.9,30.12,NNE,12,7.0,11.0,40,0.00,,,0.02,Wunderground v.1.15,2013-04-04 17:10:00,
2013-04-04 12:15:00,52.8,27.9,30.11,North,355,9.0,13.0,38,0.00,,,0.02,Wunderground v.1.15,2013-04-04 17:15:00,
2013-04-04 12:20:00,53.1,28.8,30.11,North,355,9.0,9.0,39,0.00,,,0.02,Wunderground v.1.15,2013-04-04 17:20:00,
2013-04-04 12:25:00,52.8,27.9,30.11,NNE,30,9.0,16.0,38,0.00,,,0.02,Wunderground v.1.15,2013-04-04 17:25:00,
2013-04-04 12:31:00,52.8,25.9,30.11,NNE,13,8.0,8.0,35,0.00,,,0.02,Wunderground v.1.15,2013-04-04 17:31:00,
2013-04-04 12:40:00,53.1,27.5,30.11,North,360,6.0,10.0,37,0.00,,,0.02,Wunderground v.1.15,2013-04-04 17:40:00,
2013-04-04 12:45:00,53.2,28.2,30.11,North,5,6.0,6.0,38,0.00,,,0.02,Wunderground v.1.15,2013-04-04 17:45:00,
2013-04-04 12:50:00,53.1,27.5,30.11,NNE,24,6.0,6.0,37,0.00,,,0.02,Wunderground v.1.15,2013-04-04 17:50:00,
2013-04-04 12:55:00,52.8,26.6,30.11,NNW,348,5.0,5.0,36,0.00,,,0.02,Wunderground v.1.15,2013-04-04 17:55:00,
2013-04-04 13:00:00,52.5,26.3,30.10,North,360,6.0,12.0,36,0.00,,,0.02,Wunderground v.1.15,2013-04-04 18:00:00,
2013-04-04 13:05:00,52.8,29.1,30.10,NNE,26,5.0,12.0,40,0.00,,,0.02,Wunderground v.1.15,2013-04-04 18:05:00,
2013-04-04 13:11:00,52.8,26.6,30.10,NNW,341,5.0,5.0,36,0.00,,,0.02,Wunderground v.1.15,2013-04-04 18:11:00,
2013-04-04 13:16:00,52.9,26.6,30.10,NNW,341,3.0,5.0,36,0.00,,,0.02,Wunderground v.1.15,2013-04-04 18:16:00,
2013-04-04 13:26:00,53.2,26.9,30.10,NNE,21,5.0,8.0,36,0.00,,,0.02,Wunderground v.1.15,2013-04-04 18:26:00,
2013-04-04 13:31:00,53.1,27.5,30.10,North,350,5.0,8.0,37,0.00,,,0.02,Wunderground v.1.15,2013-04-04 18:31:00,
2013-04-04 13:40:00,52.9,28.0,30.10,NNE,22,2.0,3.0,38,0.00,,,0.02,Wunderground v.1.15,2013-04-04 18:40:00,
2013-04-04 13:45:00,53.1,28.8,30.10,NNE,22,1.0,1.0,39,0.00,,,0.02,Wunderground v.1.15,2013-04-04 18:45:00,
2013-04-04 13:50:00,52.9,27.3,30.10,NE,35,2.0,2.0,37,0.00,,,0.02,Wunderground v.1.15,2013-04-04 18:50:00,
2013-04-04 13:55:00,52.9,27.3,30.10,NNW,331,2.0,5.0,37,0.00,,,0.02,Wunderground v.1.15,2013-04-04 18:55:00,
2013-04-04 14:00:00,52.9,26.6,30.09,NNE,26,3.0,4.0,36,0.00,,,0.02,Wunderground v.1.15,2013-04-04 19:00:00,
2013-04-04 14:05:00,52.9,28.0,30.09,NNE,33,3.0,4.0,38,0.00,,,0.02,Wunderground v.1.15,2013-04-04 19:05:00,
2013-04-04 14:11:00,52.8,27.9,30.09,NE,34,3.0,5.0,38,0.00,,,0.02,Wunderground v.1.15,2013-04-04 19:11:00,
2013-04-04 14:16:00,52.8,27.9,30.10,North,360,3.0,6.0,38,0.00,,,0.02,Wunderground v.1.15,2013-04-04 19:16:00,
2013-04-04 14:25:00,53.1,27.5,30.10,NE,37,3.0,3.0,37,0.00,,,0.02,Wunderground v.1.15,2013-04-04 19:25:00,
2013-04-04 14:30:00,53.2,28.2,30.09,NNE,21,3.0,3.0,38,0.00,,,0.02,Wunderground v.1.15,2013-04-04 19:30:00,
2013-04-04 14:35:00,53.5,28.5,30.09,NNW,335,3.0,5.0,38,0.00,,,0.02,Wunderground v.1.15,2013-04-04 19:35:00,
2013-04-04 14:40:00,53.6,27.9,30.09,NNW,343,4.0,5.0,37,0.00,,,0.02,Wunderground v.1.15,2013-04-04 19:40:00,
2013-04-04 14:46:00,53.9,27.5,30.09,NNW,345,3.0,3.0,36,0.00,,,0.02,Wunderground v.1.15,2013-04-04 19:46:00,
2013-04-04 14:51:00,54.1,27.7,30.09,NNE,15,3.0,6.0,36,0.00,,,0.02,Wunderground v.1.15,2013-04-04 19:51:00,
2013-04-04 15:00:00,53.9,28.8,30.09,North,9,4.0,4.0,38,0.00,,,0.02,Wunderground v.1.15,2013-04-04 20:00:00,
2013-04-04 15:05:00,53.9,28.2,30.09,North,350,4.0,5.0,37,0.00,,,0.02,Wunderground v.1.15,2013-04-04 20:05:00,
2013-04-04 15:10:00,53.9,27.5,30.09,NE,40,4.0,4.0,36,0.00,,,0.02,Wunderground v.1.15,2013-04-04 20:10:00,
2013-04-04 15:15:00,53.9,27.5,30.08,NNW,346,4.0,6.0,36,0.00,,,0.02,Wunderground v.1.15,2013-04-04 20:15:00,
2013-04-04 15:21:00,53.9,28.2,30.08,NNW,348,3.0,3.0,37,0.00,,,0.02,Wunderground v.1.15,2013-04-04 20:21:00,
2013-04-04 15:26:00,53.9,27.5,30.08,NNE,17,2.0,6.0,36,0.00,,,0.02,Wunderground v.1.15,2013-04-04 20:26:00,
2013-04-04 15:35:00,53.8,27.4,30.07,North,5,3.0,3.0,36,0.00,,,0.02,Wunderground v.1.15,2013-04-04 20:35:00,
2013-04-04 15:40:00,53.5,27.8,30.07,NNW,346,4.0,5.0,37,0.00,,,0.02,Wunderground v.1.15,2013-04-04 20:40:00,
2013-04-04 15:45:00,53.5,28.5,30.07,North,5,4.0,8.0,38,0.00,,,0.02,Wunderground v.1.15,2013-04-04 20:45:00,
2013-04-04 15:50:00,53.6,27.3,30.07,North,355,5.0,8.0,36,0.00,,,0.02,Wunderground v.1.15,2013-04-04 20:50:00,
2013-04-04 15:56:00,53.9,28.2,30.07,NNW,344,5.0,5.0,37,0.00,,,0.02,Wunderground v.1.15,2013-04-04 20:56:00,
2013-04-04 16:01:00,54.1,27.7,30.07,NNW,344,4.0,4.0,36,0.00,,,0.02,Wunderground v.1.15,2013-04-04 21:01:00,
2013-04-04 16:10:00,54.2,29.1,30.07,NNW,329,4.0,7.0,38,0.00,,,0.02,Wunderground v.1.15,2013-04-04 21:10:00,
2013-04-04 16:15:00,54.2,27.1,30.07,NNW,333,4.0,5.0,35,0.00,,,0.02,Wunderground v.1.15,2013-04-04 21:15:00,
2013-04-04 16:20:00,54.2,27.8,30.07,NNW,348,4.0,5.0,36,0.00,,,0.02,Wunderground v.1.15,2013-04-04 21:20:00,
2013-04-04 16:25:00,54.4,27.3,30.07,North,355,3.0,6.0,35,0.00,,,0.02,Wunderground v.1.15,2013-04-04 21:25:00,
2013-04-04 16:31:00,54.5,26.7,30.07,North,360,3.0,6.0,34,0.00,,,0.02,Wunderground v.1.15,2013-04-04 21:31:00,
2013-04-04 16:36:00,54.7,26.8,30.07,NE,53,4.0,7.0,34,0.00,,,0.02,Wunderground v.1.15,2013-04-04 21:36:00,
2013-04-04 16:45:00,54.8,27.6,30.07,NNE,24,4.0,10.0,35,0.00,,,0.02,Wunderground v.1.15,2013-04-04 21:45:00,
2013-04-04 16:50:00,54.7,27.6,30.07,North,11,4.0,4.0,35,0.00,,,0.02,Wunderground v.1.15,2013-04-04 21:50:00,
2013-04-04 16:55:00,54.7,26.8,30.07,NNW,342,5.0,5.0,34,0.00,,,0.02,Wunderground v.1.15,2013-04-04 21:55:00,
2013-04-04 17:05:00,54.7,27.6,30.07,NNE,21,4.0,11.0,35,0.00,,,0.02,Wunderground v.1.15,2013-04-04 22:05:00,
2013-04-04 17:10:00,54.8,29.0,30.07,NNW,348,4.0,6.0,37,0.00,,,0.02,Wunderground v.1.15,2013-04-04 22:10:00,
2013-04-04 17:15:00,55.0,28.5,30.07,North,5,4.0,10.0,36,0.00,,,0.02,Wunderground v.1.15,2013-04-04 22:15:00,
2013-04-04 17:20:00,55.0,27.8,30.07,ENE,61,4.0,4.0,35,0.00,,,0.02,Wunderground v.1.15,2013-04-04 22:20:00,
2013-04-04 17:26:00,55.0,28.5,30.07,NNW,346,3.0,6.0,36,0.00,,,0.02,Wunderground v.1.15,2013-04-04 22:26:00,
2013-04-04 17:35:00,54.5,28.7,30.07,North,11,3.0,5.0,37,0.00,,,0.02,Wunderground v.1.15,2013-04-04 22:35:00,
2013-04-04 17:40:00,54.4,28.6,30.07,NNW,347,3.0,3.0,37,0.00,,,0.02,Wunderground v.1.15,2013-04-04 22:40:00,
2013-04-04 17:45:00,54.2,28.5,30.07,North,355,3.0,4.0,37,0.00,,,0.02,Wunderground v.1.15,2013-04-04 22:45:00,
2013-04-04 17:50:00,54.1,27.7,30.07,North,351,3.0,6.0,36,0.00,,,0.02,Wunderground v.1.15,2013-04-04 22:50:00,
2013-04-04 17:56:00,54.1,27.0,30.07,NNE,22,4.0,6.0,35,0.00,,,0.02,Wunderground v.1.15,2013-04-04 22:56:00,
2013-04-04 18:01:00,53.9,27.5,30.07,North,355,4.0,5.0,36,0.00,,,0.02,Wunderground v.1.15,2013-04-04 23:01:00,
2013-04-04 18:10:00,53.6,27.9,30.07,NNW,348,3.0,6.0,37,0.00,,,0.02,Wunderground v.1.15,2013-04-04 23:10:00,
2013-04-04 18:15:00,53.6,28.6,30.07,NNW,341,3.0,3.0,38,0.00,,,0.02,Wunderground v.1.15,2013-04-04 23:15:00,
2013-04-04 18:20:00,53.5,27.2,30.07,North,360,3.0,5.0,36,0.00,,,0.02,Wunderground v.1.15,2013-04-04 23:20:00,
2013-04-04 18:25:00,53.5,26.5,30.07,NNE,17,3.0,3.0,35,0.00,,,0.02,Wunderground v.1.15,2013-04-04 23:25:00,
2013-04-04 18:30:00,53.5,27.2,30.07,North,5,2.0,4.0,36,0.00,,,0.02,Wunderground v.1.15,2013-04-04 23:30:00,
2013-04-04 18:35:00,53.3,26.3,30.07,North,355,3.0,4.0,35,0.00,,,0.02,Wunderground v.1.15,2013-04-04 23:35:00,
2013-04-04 18:41:00,53.3,28.3,30.07,North,355,3.0,4.0,38,0.00,,,0.02,Wunderground v.1.15,2013-04-04 23:41:00,
2013-04-04 18:46:00,53.3,27.0,30.07,North,350,2.0,2.0,36,0.00,,,0.02,Wunderground v.1.15,2013-04-04 23:46:00,
2013-04-04 18:55:00,53.3,27.7,30.07,North,350,0.0,2.0,37,0.00,,,0.02,Wunderground v.1.15,2013-04-04 23:55:00,
2013-04-04 19:00:00,53.2,28.2,30.08,North,350,0.0,2.0,38,0.00,,,0.02,Wunderground v.1.15,2013-04-05 00:00:00,
2013-04-04 19:05:00,53.1,28.1,30.08,North,350,1.0,2.0,38,0.00,,,0.02,Wunderground v.1.15,2013-04-05 00:05:00,
2013-04-04 19:10:00,52.9,28.0,30.08,North,350,1.0,3.0,38,0.00,,,0.02,Wunderground v.1.15,2013-04-05 00:10:00,
2013-04-04 19:16:00,52.6,28.3,30.08,North,350,0.0,3.0,39,0.00,,,0.02,Wunderground v.1.15,2013-04-05 00:16:00,
2013-04-04 19:25:00,52.3,28.7,30.08,North,350,1.0,1.0,40,0.00,,,0.02,Wunderground v.1.15,2013-04-05 00:25:00,
2013-04-04 19:30:00,52.0,28.4,30.08,North,350,0.0,2.0,40,0.00,,,0.02,Wunderground v.1.15,2013-04-05 00:30:00,
2013-04-04 19:36:00,51.9,29.5,30.08,North,350,0.0,2.0,42,0.00,,,0.02,Wunderground v.1.15,2013-04-05 00:36:00,
2013-04-04 19:41:00,51.6,28.6,30.08,North,350,1.0,1.0,41,0.00,,,0.02,Wunderground v.1.15,2013-04-05 00:41:00,
2013-04-04 19:50:00,51.0,28.7,30.08,North,350,1.0,4.0,42,0.00,,,0.02,Wunderground v.1.15,2013-04-05 00:50:00,
2013-04-04 19:55:00,50.7,28.4,30.08,North,350,1.0,1.0,42,0.00,,,0.02,Wunderground v.1.15,2013-04-05 00:55:00,
2013-04-04 20:00:00,50.2,32.3,30.08,North,350,0.0,1.0,50,0.00,,,0.02,Wunderground v.1.15,2013-04-05 01:00:00,
2013-04-04 20:05:00,49.5,34.0,30.08,North,350,0.0,1.0,55,0.00,,,0.02,Wunderground v.1.15,2013-04-05 01:05:00,
2013-04-04 20:11:00,48.3,34.2,30.08,North,350,0.0,0.0,58,0.00,,,0.02,Wunderground v.1.15,2013-04-05 01:11:00,
2013-04-04 20:16:00,47.3,34.1,30.09,North,350,0.0,0.0,60,0.00,,,0.02,Wunderground v.1.15,2013-04-05 01:16:00,
2013-04-04 20:25:00,45.5,33.6,30.09,North,350,0.0,0.0,63,0.00,,,0.02,Wunderground v.1.15,2013-04-05 01:25:00,
2013-04-04 20:30:00,44.5,33.5,30.10,North,350,0.0,0.0,65,0.00,,,0.02,Wunderground v.1.15,2013-04-05 01:30:00,
2013-04-04 20:36:00,43.6,33.0,30.10,North,350,0.0,0.0,66,0.00,,,0.02,Wunderground v.1.15,2013-04-05 01:36:00,
2013-04-04 20:41:00,42.9,32.3,30.10,North,350,0.0,0.0,66,0.00,,,0.02,Wunderground v.1.15,2013-04-05 01:41:00,
2013-04-04 20:46:00,42.5,31.9,30.10,North,350,0.0,0.0,66,0.00,,,0.02,Wunderground v.1.15,2013-04-05 01:46:00,
2013-04-04 20:55:00,41.6,32.2,30.10,North,350,0.0,0.0,69,0.00,,,0.02,Wunderground v.1.15,2013-04-05 01:55:00,
2013-04-04 21:00:00,41.2,31.4,30.11,North,350,0.0,0.0,68,0.00,,,0.02,Wunderground v.1.15,2013-04-05 02:00:00,
2013-04-04 21:05:00,40.9,31.5,30.11,North,350,0.0,0.0,69,0.00,,,0.02,Wunderground v.1.15,2013-04-05 02:05:00,
2013-04-04 21:10:00,40.5,31.5,30.11,North,350,0.0,0.0,70,0.00,,,0.02,Wunderground v.1.15,2013-04-05 02:10:00,
2013-04-04 21:15:00,40.2,31.2,30.12,North,350,0.0,0.0,70,0.00,,,0.02,Wunderground v.1.15,2013-04-05 02:15:00,
2013-04-04 21:21:00,39.8,31.2,30.12,North,350,0.0,0.0,71,0.00,,,0.02,Wunderground v.1.15,2013-04-05 02:21:00,
2013-04-04 21:26:00,39.5,31.2,30.12,North,350,0.0,0.0,72,0.00,,,0.02,Wunderground v.1.15,2013-04-05 02:26:00,
2013-04-04 21:35:00,39.1,31.5,30.13,North,350,0.0,0.0,74,0.00,,,0.02,Wunderground v.1.15,2013-04-05 02:35:00,
2013-04-04 21:41:00,38.8,30.9,30.13,North,350,0.0,0.0,73,0.00,,,0.02,Wunderground v.1.15,2013-04-05 02:41:00,
2013-04-04 21:46:00,38.5,30.9,30.13,North,350,0.0,0.0,74,0.00,,,0.02,Wunderground v.1.15,2013-04-05 02:46:00,
2013-04-04 21:55:00,38.2,30.6,30.13,North,350,0.0,0.0,74,0.00,,,0.02,Wunderground v.1.15,2013-04-05 02:55:00,
2013-04-04 22:00:00,37.9,30.7,30.14,North,350,0.0,0.0,75,0.00,,,0.02,Wunderground v.1.15,2013-04-05 03:00:00,
2013-04-04 22:05:00,37.6,30.7,30.14,North,350,0.0,0.0,76,0.00,,,0.02,Wunderground v.1.15,2013-04-05 03:05:00,
2013-04-04 22:11:00,37.3,30.4,30.14,North,350,0.0,0.0,76,0.00,,,0.02,Wunderground v.1.15,2013-04-05 03:11:00,
2013-04-04 22:16:00,37.0,30.1,30.14,North,350,0.0,0.0,76,0.00,,,0.02,Wunderground v.1.15,2013-04-05 03:16:00,
2013-04-04 22:21:00,36.9,30.4,30.14,North,350,0.0,0.0,77,0.00,,,0.02,Wunderground v.1.15,2013-04-05 03:21:00,
2013-04-04 22:30:00,36.5,30.3,30.13,North,350,0.0,0.0,78,0.00,,,0.02,Wunderground v.1.15,2013-04-05 03:30:00,
2013-04-04 22:35:00,36.3,30.1,30.13,North,350,0.0,0.0,78,0.00,,,0.02,Wunderground v.1.15,2013-04-05 03:35:00,
2013-04-04 22:41:00,36.3,30.1,30.13,North,350,0.0,0.0,78,0.00,,,0.02,Wunderground v.1.15,2013-04-05 03:41:00,
2013-04-04 22:50:00,36.0,29.8,30.14,North,350,0.0,0.0,78,0.00,,,0.02,Wunderground v.1.15,2013-04-05 03:50:00,
2013-04-04 22:55:00,35.8,29.9,30.14,North,350,0.0,0.0,79,0.00,,,0.02,Wunderground v.1.15,2013-04-05 03:55:00,
2013-04-04 23:00:00,35.5,29.9,30.14,North,350,0.0,0.0,80,0.00,,,0.02,Wunderground v.1.15,2013-04-05 04:00:00,
2013-04-04 23:05:00,35.3,29.7,30.14,North,350,0.0,0.0,80,0.00,,,0.02,Wunderground v.1.15,2013-04-05 04:05:00,
2013-04-04 23:11:00,35.2,30.0,30.14,North,350,0.0,0.0,81,0.00,,,0.02,Wunderground v.1.15,2013-04-05 04:11:00,
2013-04-04 23:16:00,35.2,30.0,30.14,North,350,0.0,0.0,81,0.00,,,0.02,Wunderground v.1.15,2013-04-05 04:16:00,
2013-04-04 23:25:00,34.9,29.7,30.14,North,350,0.0,0.0,81,0.00,,,0.02,Wunderground v.1.15,2013-04-05 04:25:00,
2013-04-04 23:30:00,34.6,29.4,30.14,North,350,0.0,0.0,81,0.00,,,0.02,Wunderground v.1.15,2013-04-05 04:30:00,
2013-04-04 23:35:00,34.4,29.2,30.14,North,350,0.0,0.0,81,0.00,,,0.02,Wunderground v.1.15,2013-04-05 04:35:00,
2013-04-04 23:40:00,34.1,29.2,30.14,North,350,0.0,0.0,82,0.00,,,0.02,Wunderground v.1.15,2013-04-05 04:40:00,
2013-04-04 23:45:00,34.0,29.1,30.14,North,350,0.0,0.0,82,0.00,,,0.02,Wunderground v.1.15,2013-04-05 04:45:00,
2013-04-04 23:50:00,33.8,29.2,30.14,North,350,0.0,0.0,83,0.00,,,0.02,Wunderground v.1.15,2013-04-05 04:50:00,